sensor_id;sensor_type;location;lat;lon;timestamp;pressure;altitude;pressure_sealevel;temperature;humidity
5812;BME280;2932;52.400;9.558;2023-08-24T00:01:25;101236.09;;;23.44;66.62
5812;BME280;2932;52.400;9.558;2023-08-24T00:03:51;101233.31;;;23.78;65.72
5812;BME280;2932;52.400;9.558;2023-08-24T00:06:16;101236.41;;;23.56;65.68
5812;BME280;2932;52.400;9.558;2023-08-24T00:08:42;101235.16;;;23.57;65.57
5812;BME280;2932;52.400;9.558;2023-08-24T00:11:07;101244.09;;;23.49;65.67
5812;BME280;2932;52.400;9.558;2023-08-24T00:13:33;101246.91;;;23.52;65.99
5812;BME280;2932;52.400;9.558;2023-08-24T00:15:58;101241.75;;;23.44;66.22
5812;BME280;2932;52.400;9.558;2023-08-24T00:18:24;101245.72;;;23.50;65.47
5812;BME280;2932;52.400;9.558;2023-08-24T00:20:50;101243.84;;;23.33;65.80
5812;BME280;2932;52.400;9.558;2023-08-24T00:23:16;101246.88;;;23.15;66.74
5812;BME280;2932;52.400;9.558;2023-08-24T00:25:42;101253.44;;;23.01;66.89
5812;BME280;2932;52.400;9.558;2023-08-24T00:28:07;101248.25;;;22.92;67.78
5812;BME280;2932;52.400;9.558;2023-08-24T00:30:32;101243.09;;;22.84;67.60
5812;BME280;2932;52.400;9.558;2023-08-24T00:32:58;101236.94;;;22.96;67.46
5812;BME280;2932;52.400;9.558;2023-08-24T00:35:23;101244.28;;;22.86;67.38
5812;BME280;2932;52.400;9.558;2023-08-24T00:37:48;101246.00;;;22.70;68.13
5812;BME280;2932;52.400;9.558;2023-08-24T00:40:15;101240.03;;;22.57;67.93
5812;BME280;2932;52.400;9.558;2023-08-24T00:42:43;101235.38;;;22.33;69.58
5812;BME280;2932;52.400;9.558;2023-08-24T00:45:10;101239.53;;;22.03;69.71
5812;BME280;2932;52.400;9.558;2023-08-24T00:47:46;101236.34;;;21.98;69.54
5812;BME280;2932;52.400;9.558;2023-08-24T00:50:12;101233.91;;;22.03;70.26
5812;BME280;2932;52.400;9.558;2023-08-24T00:52:40;101229.31;;;22.38;69.74
5812;BME280;2932;52.400;9.558;2023-08-24T00:55:06;101230.06;;;22.42;68.61
5812;BME280;2932;52.400;9.558;2023-08-24T00:57:31;101228.38;;;22.55;68.29
5812;BME280;2932;52.400;9.558;2023-08-24T00:59:59;101230.78;;;22.56;68.36
5812;BME280;2932;52.400;9.558;2023-08-24T01:02:27;101227.59;;;22.51;68.55
5812;BME280;2932;52.400;9.558;2023-08-24T01:04:53;101223.56;;;22.52;68.40
5812;BME280;2932;52.400;9.558;2023-08-24T01:07:19;101223.91;;;22.57;68.51
5812;BME280;2932;52.400;9.558;2023-08-24T01:09:45;101224.34;;;22.52;67.88
5812;BME280;2932;52.400;9.558;2023-08-24T01:16:11;101220.97;;;22.79;67.90
5812;BME280;2932;52.400;9.558;2023-08-24T01:18:13;101220.19;;;22.78;67.42
5812;BME280;2932;52.400;9.558;2023-08-24T01:20:40;101216.41;;;22.92;67.65
5812;BME280;2932;52.400;9.558;2023-08-24T01:23:09;101224.41;;;23.01;67.58
5812;BME280;2932;52.400;9.558;2023-08-24T01:25:52;101219.59;;;22.98;66.64
5812;BME280;2932;52.400;9.558;2023-08-24T01:28:19;101216.31;;;23.03;66.67
5812;BME280;2932;52.400;9.558;2023-08-24T01:30:46;101227.28;;;22.93;66.80
5812;BME280;2932;52.400;9.558;2023-08-24T01:33:11;101221.25;;;22.91;66.77
5812;BME280;2932;52.400;9.558;2023-08-24T01:35:37;101223.78;;;22.75;67.38
5812;BME280;2932;52.400;9.558;2023-08-24T01:38:03;101213.00;;;22.63;68.58
5812;BME280;2932;52.400;9.558;2023-08-24T01:40:43;101210.16;;;22.67;69.04
5812;BME280;2932;52.400;9.558;2023-08-24T01:43:10;101205.78;;;22.58;69.08
5812;BME280;2932;52.400;9.558;2023-08-24T01:45:39;101213.91;;;22.46;68.63
5812;BME280;2932;52.400;9.558;2023-08-24T01:48:09;101214.00;;;22.39;69.21
5812;BME280;2932;52.400;9.558;2023-08-24T01:50:35;101207.97;;;22.37;69.54
5812;BME280;2932;52.400;9.558;2023-08-24T01:53:02;101208.22;;;22.56;69.21
5812;BME280;2932;52.400;9.558;2023-08-24T01:55:28;101217.88;;;22.55;69.07
5812;BME280;2932;52.400;9.558;2023-08-24T01:57:55;101215.44;;;22.57;68.87
5812;BME280;2932;52.400;9.558;2023-08-24T02:00:21;101216.25;;;22.58;69.85
5812;BME280;2932;52.400;9.558;2023-08-24T02:02:46;101219.50;;;22.53;69.57
5812;BME280;2932;52.400;9.558;2023-08-24T02:05:11;101216.31;;;22.51;69.16
5812;BME280;2932;52.400;9.558;2023-08-24T02:07:39;101211.63;;;22.26;70.43
5812;BME280;2932;52.400;9.558;2023-08-24T02:10:05;101216.94;;;22.14;70.91
5812;BME280;2932;52.400;9.558;2023-08-24T02:12:30;101219.00;;;22.03;71.62
5812;BME280;2932;52.400;9.558;2023-08-24T02:14:56;101211.25;;;22.21;71.07
5812;BME280;2932;52.400;9.558;2023-08-24T02:17:21;101210.47;;;22.20;70.59
5812;BME280;2932;52.400;9.558;2023-08-24T02:19:46;101212.38;;;22.38;70.23
5812;BME280;2932;52.400;9.558;2023-08-24T02:22:12;101208.72;;;22.41;69.82
5812;BME280;2932;52.400;9.558;2023-08-24T02:24:37;101201.16;;;22.31;70.07
5812;BME280;2932;52.400;9.558;2023-08-24T02:27:02;101199.28;;;22.03;70.71
5812;BME280;2932;52.400;9.558;2023-08-24T02:29:28;101192.50;;;21.86;71.46
5812;BME280;2932;52.400;9.558;2023-08-24T02:31:53;101186.47;;;21.84;71.45
5812;BME280;2932;52.400;9.558;2023-08-24T02:34:19;101189.22;;;22.02;71.45
5812;BME280;2932;52.400;9.558;2023-08-24T02:36:44;101177.06;;;22.19;71.61
5812;BME280;2932;52.400;9.558;2023-08-24T02:39:10;101175.44;;;22.18;70.54
5812;BME280;2932;52.400;9.558;2023-08-24T02:41:35;101174.28;;;22.08;70.99
5812;BME280;2932;52.400;9.558;2023-08-24T02:44:01;101173.00;;;22.20;71.81
5812;BME280;2932;52.400;9.558;2023-08-24T02:46:26;101173.38;;;22.29;71.63
5812;BME280;2932;52.400;9.558;2023-08-24T02:48:52;101164.09;;;22.32;71.29
5812;BME280;2932;52.400;9.558;2023-08-24T02:51:17;101164.88;;;22.33;71.21
5812;BME280;2932;52.400;9.558;2023-08-24T02:53:43;101168.81;;;22.42;71.01
5812;BME280;2932;52.400;9.558;2023-08-24T02:56:08;101169.63;;;22.43;70.32
5812;BME280;2932;52.400;9.558;2023-08-24T02:58:34;101167.16;;;22.52;69.93
5812;BME280;2932;52.400;9.558;2023-08-24T03:00:59;101164.31;;;22.52;69.58
5812;BME280;2932;52.400;9.558;2023-08-24T03:03:30;101164.72;;;22.54;69.44
5812;BME280;2932;52.400;9.558;2023-08-24T03:06:03;101156.59;;;22.63;69.35
5812;BME280;2932;52.400;9.558;2023-08-24T03:08:29;101162.63;;;22.61;69.04
5812;BME280;2932;52.400;9.558;2023-08-24T03:10:55;101159.47;;;22.56;68.52
5812;BME280;2932;52.400;9.558;2023-08-24T03:13:20;101160.34;;;22.46;68.39
5812;BME280;2932;52.400;9.558;2023-08-24T03:15:46;101162.94;;;22.22;69.48
5812;BME280;2932;52.400;9.558;2023-08-24T03:18:12;101162.97;;;22.19;69.64
5812;BME280;2932;52.400;9.558;2023-08-24T03:20:40;101159.94;;;22.44;69.48
5812;BME280;2932;52.400;9.558;2023-08-24T03:23:06;101166.16;;;22.24;69.64
5812;BME280;2932;52.400;9.558;2023-08-24T03:25:35;101164.66;;;21.99;70.33
5812;BME280;2932;52.400;9.558;2023-08-24T03:28:02;101162.25;;;21.97;70.96
5812;BME280;2932;52.400;9.558;2023-08-24T03:30:28;101162.25;;;21.97;71.42
5812;BME280;2932;52.400;9.558;2023-08-24T03:32:53;101167.50;;;21.99;71.15
5812;BME280;2932;52.400;9.558;2023-08-24T03:35:18;101169.50;;;21.98;72.08
5812;BME280;2932;52.400;9.558;2023-08-24T03:37:43;101174.72;;;22.03;71.55
5812;BME280;2932;52.400;9.558;2023-08-24T03:40:09;101164.81;;;21.63;72.20
5812;BME280;2932;52.400;9.558;2023-08-24T03:42:34;101164.06;;;21.59;71.98
5812;BME280;2932;52.400;9.558;2023-08-24T03:45:00;101165.63;;;21.60;72.67
5812;BME280;2932;52.400;9.558;2023-08-24T03:47:25;101159.94;;;21.78;72.07
5812;BME280;2932;52.400;9.558;2023-08-24T03:49:50;101172.81;;;21.79;72.26
5812;BME280;2932;52.400;9.558;2023-08-24T03:52:16;101165.19;;;21.76;71.82
5812;BME280;2932;52.400;9.558;2023-08-24T03:54:41;101167.63;;;21.70;71.93
5812;BME280;2932;52.400;9.558;2023-08-24T03:57:07;101168.09;;;21.58;72.45
5812;BME280;2932;52.400;9.558;2023-08-24T03:59:32;101170.03;;;21.68;72.32
5812;BME280;2932;52.400;9.558;2023-08-24T04:01:58;101176.88;;;21.71;71.41
5812;BME280;2932;52.400;9.558;2023-08-24T04:04:27;101182.59;;;21.53;72.13
5812;BME280;2932;52.400;9.558;2023-08-24T04:06:52;101198.19;;;21.68;72.38
5812;BME280;2932;52.400;9.558;2023-08-24T04:09:18;101190.16;;;21.67;71.58
5812;BME280;2932;52.400;9.558;2023-08-24T04:11:43;101190.16;;;21.67;71.00
5812;BME280;2932;52.400;9.558;2023-08-24T04:14:09;101190.91;;;21.78;71.15
5812;BME280;2932;52.400;9.558;2023-08-24T04:16:34;101185.63;;;21.94;70.36
5812;BME280;2932;52.400;9.558;2023-08-24T04:18:59;101189.28;;;21.84;69.51
5812;BME280;2932;52.400;9.558;2023-08-24T04:21:25;101191.34;;;21.76;70.37
5812;BME280;2932;52.400;9.558;2023-08-24T04:23:50;101195.00;;;21.62;70.72
5812;BME280;2932;52.400;9.558;2023-08-24T04:26:15;101203.84;;;21.64;70.93
5812;BME280;2932;52.400;9.558;2023-08-24T04:28:41;101208.22;;;21.76;70.52
5812;BME280;2932;52.400;9.558;2023-08-24T04:31:06;101204.56;;;21.90;70.39
5812;BME280;2932;52.400;9.558;2023-08-24T04:33:32;101200.06;;;22.03;70.06
5812;BME280;2932;52.400;9.558;2023-08-24T04:35:58;101196.41;;;22.13;69.38
5812;BME280;2932;52.400;9.558;2023-08-24T04:38:24;101191.94;;;22.23;69.27
5812;BME280;2932;52.400;9.558;2023-08-24T04:40:50;101191.06;;;22.33;69.08
5812;BME280;2932;52.400;9.558;2023-08-24T04:43:16;101206.00;;;22.26;68.81
5812;BME280;2932;52.400;9.558;2023-08-24T04:45:42;101200.72;;;22.32;69.36
5812;BME280;2932;52.400;9.558;2023-08-24T04:48:07;101208.28;;;22.42;68.97
5812;BME280;2932;52.400;9.558;2023-08-24T04:50:32;101208.66;;;22.48;68.65
5812;BME280;2932;52.400;9.558;2023-08-24T04:52:57;101213.03;;;22.56;68.61
5812;BME280;2932;52.400;9.558;2023-08-24T04:55:23;101204.66;;;22.45;68.47
5812;BME280;2932;52.400;9.558;2023-08-24T04:57:48;101193.78;;;22.44;68.64
5812;BME280;2932;52.400;9.558;2023-08-24T05:00:14;101192.97;;;22.47;68.38
5812;BME280;2932;52.400;9.558;2023-08-24T05:02:42;101201.97;;;22.27;67.91
5812;BME280;2932;52.400;9.558;2023-08-24T05:05:08;101206.84;;;22.20;68.18
5812;BME280;2932;52.400;9.558;2023-08-24T05:07:35;101195.91;;;22.29;68.82
5812;BME280;2932;52.400;9.558;2023-08-24T05:10:00;101195.47;;;22.38;69.14
5812;BME280;2932;52.400;9.558;2023-08-24T05:12:26;101181.66;;;22.50;68.75
5812;BME280;2932;52.400;9.558;2023-08-24T05:14:51;101186.88;;;22.52;68.34
5812;BME280;2932;52.400;9.558;2023-08-24T05:17:16;101188.06;;;22.58;68.37
5812;BME280;2932;52.400;9.558;2023-08-24T05:19:42;101177.94;;;22.64;68.34
5812;BME280;2932;52.400;9.558;2023-08-24T05:22:07;101186.72;;;22.73;68.29
5812;BME280;2932;52.400;9.558;2023-08-24T05:24:32;101188.69;;;22.80;67.88
5812;BME280;2932;52.400;9.558;2023-08-24T05:26:58;101193.25;;;22.63;67.88
5812;BME280;2932;52.400;9.558;2023-08-24T05:29:23;101197.34;;;22.55;68.58
5812;BME280;2932;52.400;9.558;2023-08-24T05:31:48;101193.72;;;22.54;68.75
5812;BME280;2932;52.400;9.558;2023-08-24T05:34:13;101196.34;;;22.27;69.36
5812;BME280;2932;52.400;9.558;2023-08-24T05:36:39;101203.75;;;21.89;71.03
5812;BME280;2932;52.400;9.558;2023-08-24T05:39:04;101207.81;;;21.78;72.26
5812;BME280;2932;52.400;9.558;2023-08-24T05:41:30;101205.78;;;21.89;73.00
5812;BME280;2932;52.400;9.558;2023-08-24T05:43:55;101207.75;;;21.99;71.89
5812;BME280;2932;52.400;9.558;2023-08-24T05:46:22;101203.75;;;21.93;71.47
5812;BME280;2932;52.400;9.558;2023-08-24T05:48:47;101196.50;;;21.92;72.06
5812;BME280;2932;52.400;9.558;2023-08-24T05:51:13;101198.06;;;22.04;71.88
5812;BME280;2932;52.400;9.558;2023-08-24T05:53:39;101192.84;;;22.02;71.99
5812;BME280;2932;52.400;9.558;2023-08-24T05:56:06;101182.72;;;22.12;71.74
5812;BME280;2932;52.400;9.558;2023-08-24T05:58:31;101179.84;;;22.22;71.39
5812;BME280;2932;52.400;9.558;2023-08-24T06:01:00;101164.50;;;22.31;71.60
5812;BME280;2932;52.400;9.558;2023-08-24T06:03:25;101160.81;;;22.37;71.51
5812;BME280;2932;52.400;9.558;2023-08-24T06:05:51;101155.06;;;22.51;71.04
5812;BME280;2932;52.400;9.558;2023-08-24T06:08:17;101161.06;;;22.57;71.00
5812;BME280;2932;52.400;9.558;2023-08-24T06:10:42;101155.47;;;22.50;71.37
5812;BME280;2932;52.400;9.558;2023-08-24T06:13:08;101154.59;;;22.60;70.99
5812;BME280;2932;52.400;9.558;2023-08-24T06:15:33;101159.41;;;22.63;71.09
5812;BME280;2932;52.400;9.558;2023-08-24T06:17:59;101155.75;;;22.66;71.52
5812;BME280;2932;52.400;9.558;2023-08-24T06:20:25;101154.94;;;22.69;71.40
5812;BME280;2932;52.400;9.558;2023-08-24T06:22:50;101139.44;;;22.88;71.05
5812;BME280;2932;52.400;9.558;2023-08-24T06:25:15;101147.44;;;22.97;70.81
5812;BME280;2932;52.400;9.558;2023-08-24T06:27:41;101134.47;;;23.03;70.79
5812;BME280;2932;52.400;9.558;2023-08-24T06:30:07;101137.22;;;23.10;70.42
5812;BME280;2932;52.400;9.558;2023-08-24T06:32:32;101131.50;;;23.17;70.49
5812;BME280;2932;52.400;9.558;2023-08-24T06:34:57;101112.06;;;23.22;70.49
5812;BME280;2932;52.400;9.558;2023-08-24T06:37:23;101112.34;;;23.32;70.43
5812;BME280;2932;52.400;9.558;2023-08-24T06:39:49;101116.28;;;23.41;69.99
5812;BME280;2932;52.400;9.558;2023-08-24T06:42:14;101119.03;;;23.48;69.63
5812;BME280;2932;52.400;9.558;2023-08-24T06:44:39;101116.16;;;23.55;69.66
5812;BME280;2932;52.400;9.558;2023-08-24T06:47:04;101132.50;;;23.68;69.48
5812;BME280;2932;52.400;9.558;2023-08-24T06:49:30;101115.03;;;23.76;69.22
5812;BME280;2932;52.400;9.558;2023-08-24T06:51:55;101127.06;;;23.84;68.71
5812;BME280;2932;52.400;9.558;2023-08-24T06:54:20;101126.63;;;23.85;69.08
5812;BME280;2932;52.400;9.558;2023-08-24T06:56:48;101127.84;;;24.11;68.78
5812;BME280;2932;52.400;9.558;2023-08-24T06:59:13;101127.63;;;24.29;68.37
5812;BME280;2932;52.400;9.558;2023-08-24T07:01:38;101128.13;;;24.47;67.44
5812;BME280;2932;52.400;9.558;2023-08-24T07:04:04;101134.84;;;24.57;66.80
5812;BME280;2932;52.400;9.558;2023-08-24T07:06:29;101132.56;;;24.48;66.83
5812;BME280;2932;52.400;9.558;2023-08-24T07:08:55;101143.28;;;24.60;66.32
5812;BME280;2932;52.400;9.558;2023-08-24T07:11:23;101135.94;;;24.63;66.43
5812;BME280;2932;52.400;9.558;2023-08-24T07:13:48;101128.75;;;24.58;66.38
5812;BME280;2932;52.400;9.558;2023-08-24T07:16:15;101132.81;;;24.57;66.34
5812;BME280;2932;52.400;9.558;2023-08-24T07:18:40;101131.00;;;24.44;65.92
5812;BME280;2932;52.400;9.558;2023-08-24T07:21:05;101123.81;;;24.39;66.23
5812;BME280;2932;52.400;9.558;2023-08-24T07:23:31;101119.31;;;24.42;66.05
5812;BME280;2932;52.400;9.558;2023-08-24T07:25:56;101116.38;;;24.49;66.44
5812;BME280;2932;52.400;9.558;2023-08-24T07:28:21;101107.34;;;24.57;66.24
5812;BME280;2932;52.400;9.558;2023-08-24T07:30:47;101100.81;;;24.60;66.12
5812;BME280;2932;52.400;9.558;2023-08-24T07:33:12;101095.47;;;24.66;66.05
5812;BME280;2932;52.400;9.558;2023-08-24T07:35:37;101092.16;;;24.71;65.79
5812;BME280;2932;52.400;9.558;2023-08-24T07:38:04;101091.13;;;24.81;65.97
5812;BME280;2932;52.400;9.558;2023-08-24T07:40:30;101081.72;;;24.88;65.81
5812;BME280;2932;52.400;9.558;2023-08-24T07:42:55;101082.44;;;24.92;65.82
5812;BME280;2932;52.400;9.558;2023-08-24T07:45:21;101085.84;;;24.83;65.71
5812;BME280;2932;52.400;9.558;2023-08-24T07:47:48;101075.88;;;24.99;65.70
5812;BME280;2932;52.400;9.558;2023-08-24T07:50:14;101072.63;;;25.00;65.88
5812;BME280;2932;52.400;9.558;2023-08-24T07:52:40;101078.06;;;25.11;65.49
5812;BME280;2932;52.400;9.558;2023-08-24T07:55:06;101070.50;;;25.24;65.57
5812;BME280;2932;52.400;9.558;2023-08-24T07:57:33;101067.91;;;25.33;64.70
5812;BME280;2932;52.400;9.558;2023-08-24T07:59:59;101063.69;;;25.41;64.57
5812;BME280;2932;52.400;9.558;2023-08-24T08:02:24;101060.19;;;25.53;64.38
5812;BME280;2932;52.400;9.558;2023-08-24T08:04:49;101062.13;;;25.56;64.03
5812;BME280;2932;52.400;9.558;2023-08-24T08:07:15;101060.00;;;25.60;64.14
5812;BME280;2932;52.400;9.558;2023-08-24T08:09:40;101064.06;;;25.59;64.23
5812;BME280;2932;52.400;9.558;2023-08-24T08:12:06;101060.44;;;25.79;63.89
5812;BME280;2932;52.400;9.558;2023-08-24T08:14:31;101061.94;;;26.00;63.84
5812;BME280;2932;52.400;9.558;2023-08-24T08:16:57;101068.25;;;26.07;62.98
5812;BME280;2932;52.400;9.558;2023-08-24T08:19:22;101065.16;;;26.18;62.91
5812;BME280;2932;52.400;9.558;2023-08-24T08:21:50;101071.69;;;26.35;62.94
5812;BME280;2932;52.400;9.558;2023-08-24T08:24:16;101067.56;;;26.52;62.46
5812;BME280;2932;52.400;9.558;2023-08-24T08:26:41;101066.31;;;26.69;62.13
5812;BME280;2932;52.400;9.558;2023-08-24T08:29:06;101058.44;;;26.89;61.61
5812;BME280;2932;52.400;9.558;2023-08-24T08:31:32;101064.31;;;26.99;60.83
5812;BME280;2932;52.400;9.558;2023-08-24T08:33:57;101082.75;;;27.07;60.53
5812;BME280;2932;52.400;9.558;2023-08-24T08:36:22;101067.91;;;27.15;60.63
5812;BME280;2932;52.400;9.558;2023-08-24T08:38:48;101063.28;;;27.34;60.79
5812;BME280;2932;52.400;9.558;2023-08-24T08:41:17;101062.75;;;27.52;60.00
5812;BME280;2932;52.400;9.558;2023-08-24T08:43:47;101064.47;;;27.62;59.80
5812;BME280;2932;52.400;9.558;2023-08-24T08:46:12;101068.59;;;27.86;60.45
5812;BME280;2932;52.400;9.558;2023-08-24T08:48:40;101059.69;;;28.10;59.66
5812;BME280;2932;52.400;9.558;2023-08-24T08:51:06;101061.66;;;28.26;58.42
5812;BME280;2932;52.400;9.558;2023-08-24T08:53:32;101058.91;;;28.35;58.32
5812;BME280;2932;52.400;9.558;2023-08-24T08:55:57;101054.53;;;28.43;57.82
5812;BME280;2932;52.400;9.558;2023-08-24T08:58:28;101047.78;;;28.62;57.63
5812;BME280;2932;52.400;9.558;2023-08-24T09:00:55;101053.69;;;28.68;58.76
5812;BME280;2932;52.400;9.558;2023-08-24T09:03:20;101043.50;;;28.79;57.95
5812;BME280;2932;52.400;9.558;2023-08-24T09:05:46;101046.13;;;28.86;57.08
5812;BME280;2932;52.400;9.558;2023-08-24T09:08:15;101038.78;;;28.98;57.21
5812;BME280;2932;52.400;9.558;2023-08-24T09:10:41;101046.59;;;29.07;56.41
5812;BME280;2932;52.400;9.558;2023-08-24T09:13:06;101043.06;;;29.25;56.28
5812;BME280;2932;52.400;9.558;2023-08-24T09:15:34;101026.69;;;29.38;55.90
5812;BME280;2932;52.400;9.558;2023-08-24T09:18:00;101034.53;;;29.46;55.46
5812;BME280;2932;52.400;9.558;2023-08-24T09:20:27;101031.88;;;29.61;55.14
5812;BME280;2932;52.400;9.558;2023-08-24T09:22:54;101035.72;;;29.67;54.53
5812;BME280;2932;52.400;9.558;2023-08-24T09:25:22;101019.38;;;29.59;55.37
5812;BME280;2932;52.400;9.558;2023-08-24T09:28:02;101008.72;;;29.90;55.83
5812;BME280;2932;52.400;9.558;2023-08-24T09:30:33;101003.66;;;29.94;54.78
5812;BME280;2932;52.400;9.558;2023-08-24T09:33:03;101008.84;;;30.27;54.02
5812;BME280;2932;52.400;9.558;2023-08-24T09:35:33;101019.47;;;30.26;53.79
5812;BME280;2932;52.400;9.558;2023-08-24T09:38:00;101011.41;;;30.34;53.80
5812;BME280;2932;52.400;9.558;2023-08-24T09:40:25;101008.53;;;30.43;53.24
5812;BME280;2932;52.400;9.558;2023-08-24T09:42:51;101000.00;;;30.61;52.36
5812;BME280;2932;52.400;9.558;2023-08-24T09:45:17;101005.41;;;30.68;52.68
5812;BME280;2932;52.400;9.558;2023-08-24T09:47:49;100996.00;;;30.86;53.18
5812;BME280;2932;52.400;9.558;2023-08-24T09:50:14;100985.69;;;30.98;52.67
5812;BME280;2932;52.400;9.558;2023-08-24T09:52:42;100984.25;;;31.02;51.73
5812;BME280;2932;52.400;9.558;2023-08-24T09:55:08;100975.19;;;31.04;51.21
5812;BME280;2932;52.400;9.558;2023-08-24T09:57:37;100968.34;;;31.20;50.81
5812;BME280;2932;52.400;9.558;2023-08-24T10:00:07;100948.84;;;31.18;50.09
5812;BME280;2932;52.400;9.558;2023-08-24T10:02:40;100943.63;;;31.49;50.41
5812;BME280;2932;52.400;9.558;2023-08-24T10:05:07;100948.38;;;31.53;49.34
5812;BME280;2932;52.400;9.558;2023-08-24T10:07:37;100954.72;;;31.57;49.56
5812;BME280;2932;52.400;9.558;2023-08-24T10:10:03;100946.06;;;31.66;49.22
5812;BME280;2932;52.400;9.558;2023-08-24T10:12:38;100944.16;;;31.63;50.22
5812;BME280;2932;52.400;9.558;2023-08-24T10:15:07;100944.72;;;31.85;49.03
5812;BME280;2932;52.400;9.558;2023-08-24T10:17:35;100936.16;;;31.85;47.81
5812;BME280;2932;52.400;9.558;2023-08-24T10:20:01;100932.66;;;31.81;47.33
5812;BME280;2932;52.400;9.558;2023-08-24T10:22:30;100928.16;;;31.89;47.40
5812;BME280;2932;52.400;9.558;2023-08-24T10:24:56;100909.53;;;31.94;47.24
5812;BME280;2932;52.400;9.558;2023-08-24T10:27:26;100921.84;;;31.85;47.82
5812;BME280;2932;52.400;9.558;2023-08-24T10:29:52;100916.06;;;31.94;48.24
5812;BME280;2932;52.400;9.558;2023-08-24T10:32:19;100912.47;;;31.85;47.52
5812;BME280;2932;52.400;9.558;2023-08-24T10:34:45;100911.00;;;31.89;46.94
5812;BME280;2932;52.400;9.558;2023-08-24T10:37:11;100913.81;;;31.98;46.50
5812;BME280;2932;52.400;9.558;2023-08-24T10:39:38;100911.97;;;31.86;47.03
5812;BME280;2932;52.400;9.558;2023-08-24T10:42:10;100925.00;;;31.87;47.54
5812;BME280;2932;52.400;9.558;2023-08-24T10:44:38;100917.94;;;31.97;47.45
5812;BME280;2932;52.400;9.558;2023-08-24T10:49:40;100913.25;;;31.85;46.02
5812;BME280;2932;52.400;9.558;2023-08-24T10:52:16;100920.56;;;31.53;46.62
5812;BME280;2932;52.400;9.558;2023-08-24T10:54:43;100917.59;;;31.38;46.86
5812;BME280;2932;52.400;9.558;2023-08-24T10:57:24;100925.28;;;31.23;47.08
5812;BME280;2932;52.400;9.558;2023-08-24T11:02:47;100915.25;;;31.28;47.17
5812;BME280;2932;52.400;9.558;2023-08-24T11:07:51;100917.75;;;31.44;45.73
5812;BME280;2932;52.400;9.558;2023-08-24T11:10:17;100920.34;;;31.24;46.32
5812;BME280;2932;52.400;9.558;2023-08-24T11:15:36;100905.09;;;31.60;46.07
5812;BME280;2932;52.400;9.558;2023-08-24T11:20:47;100886.81;;;31.33;45.76
5812;BME280;2932;52.400;9.558;2023-08-24T11:23:14;100892.25;;;31.22;46.25
5812;BME280;2932;52.400;9.558;2023-08-24T11:25:40;100892.94;;;31.08;46.69
5812;BME280;2932;52.400;9.558;2023-08-24T11:28:05;100894.09;;;31.34;46.49
5812;BME280;2932;52.400;9.558;2023-08-24T11:30:34;100892.56;;;31.57;46.20
5812;BME280;2932;52.400;9.558;2023-08-24T11:33:00;100884.44;;;31.89;45.24
5812;BME280;2932;52.400;9.558;2023-08-24T11:35:26;100874.16;;;32.21;45.91
5812;BME280;2932;52.400;9.558;2023-08-24T11:37:55;100873.81;;;32.42;45.72
5812;BME280;2932;52.400;9.558;2023-08-24T11:40:21;100864.47;;;32.18;46.46
5812;BME280;2932;52.400;9.558;2023-08-24T11:42:53;100859.84;;;32.21;45.62
5812;BME280;2932;52.400;9.558;2023-08-24T11:45:20;100834.03;;;32.30;45.66
5812;BME280;2932;52.400;9.558;2023-08-24T11:47:45;100829.78;;;32.25;45.70
5812;BME280;2932;52.400;9.558;2023-08-24T11:50:11;100826.28;;;32.21;45.02
5812;BME280;2932;52.400;9.558;2023-08-24T11:52:40;100827.16;;;32.12;45.80
5812;BME280;2932;52.400;9.558;2023-08-24T11:55:06;100811.78;;;32.25;45.10
5812;BME280;2932;52.400;9.558;2023-08-24T11:57:35;100821.78;;;32.29;45.06
5812;BME280;2932;52.400;9.558;2023-08-24T12:00:03;100800.28;;;31.95;45.68
5812;BME280;2932;52.400;9.558;2023-08-24T12:02:29;100799.44;;;31.80;45.56
5812;BME280;2932;52.400;9.558;2023-08-24T12:04:55;100790.50;;;32.02;45.07
5812;BME280;2932;52.400;9.558;2023-08-24T12:07:21;100790.25;;;31.76;45.74
5812;BME280;2932;52.400;9.558;2023-08-24T12:09:46;100784.47;;;31.85;45.72
5812;BME280;2932;52.400;9.558;2023-08-24T12:12:16;100779.03;;;31.87;44.99
5812;BME280;2932;52.400;9.558;2023-08-24T12:14:42;100768.09;;;32.00;44.73
5812;BME280;2932;52.400;9.558;2023-08-24T12:17:09;100769.78;;;31.92;44.85
5812;BME280;2932;52.400;9.558;2023-08-24T12:19:34;100754.19;;;32.08;45.04
5812;BME280;2932;52.400;9.558;2023-08-24T12:22:00;100757.03;;;32.08;45.16
5812;BME280;2932;52.400;9.558;2023-08-24T12:24:25;100765.53;;;32.02;44.00
5812;BME280;2932;52.400;9.558;2023-08-24T12:26:57;100762.59;;;32.56;43.55
5812;BME280;2932;52.400;9.558;2023-08-24T12:29:23;100748.88;;;32.60;43.92
5812;BME280;2932;52.400;9.558;2023-08-24T12:31:49;100753.13;;;32.79;43.79
5812;BME280;2932;52.400;9.558;2023-08-24T12:34:15;100751.09;;;32.85;43.40
5812;BME280;2932;52.400;9.558;2023-08-24T12:36:41;100741.25;;;32.57;43.29
5812;BME280;2932;52.400;9.558;2023-08-24T12:39:10;100723.97;;;32.51;42.98
5812;BME280;2932;52.400;9.558;2023-08-24T12:41:36;100722.88;;;32.63;42.75
5812;BME280;2932;52.400;9.558;2023-08-24T12:44:01;100724.47;;;32.49;43.29
5812;BME280;2932;52.400;9.558;2023-08-24T12:46:31;100724.06;;;32.42;42.38
5812;BME280;2932;52.400;9.558;2023-08-24T12:48:56;100725.44;;;32.61;41.72
5812;BME280;2932;52.400;9.558;2023-08-24T12:51:21;100731.53;;;32.34;41.49
5812;BME280;2932;52.400;9.558;2023-08-24T12:53:47;100735.44;;;32.51;41.44
5812;BME280;2932;52.400;9.558;2023-08-24T12:56:12;100732.28;;;32.49;41.71
5812;BME280;2932;52.400;9.558;2023-08-24T12:58:37;100726.34;;;32.53;41.72
5812;BME280;2932;52.400;9.558;2023-08-24T13:01:03;100726.91;;;32.71;41.97
5812;BME280;2932;52.400;9.558;2023-08-24T13:03:28;100713.13;;;32.90;41.39
5812;BME280;2932;52.400;9.558;2023-08-24T13:05:53;100722.19;;;32.54;42.32
5812;BME280;2932;52.400;9.558;2023-08-24T13:08:19;100709.66;;;32.51;42.73
5812;BME280;2932;52.400;9.558;2023-08-24T13:10:44;100713.41;;;32.57;42.94
5812;BME280;2932;52.400;9.558;2023-08-24T13:13:09;100708.44;;;32.72;42.98
5812;BME280;2932;52.400;9.558;2023-08-24T13:15:35;100712.09;;;32.73;43.16
5812;BME280;2932;52.400;9.558;2023-08-24T13:18:00;100725.34;;;32.70;43.25
5812;BME280;2932;52.400;9.558;2023-08-24T13:20:26;100720.00;;;32.78;42.82
5812;BME280;2932;52.400;9.558;2023-08-24T13:22:52;100719.06;;;32.87;42.42